sensor_id;sensor_type;location;lat;lon;timestamp;temperature;humidity
14709;DHT22;7445;50.774;4.944;2023-04-07T07:46:50;9.50;99.90
14709;DHT22;7445;50.774;4.944;2023-04-07T07:49:16;9.70;99.90
14709;DHT22;7445;50.774;4.944;2023-04-07T07:51:42;9.80;99.90
14709;DHT22;7445;50.774;4.944;2023-04-07T07:54:07;9.90;99.90
14709;DHT22;7445;50.774;4.944;2023-04-07T07:56:34;9.90;99.90
14709;DHT22;7445;50.774;4.944;2023-04-07T07:58:59;9.90;99.90
14709;DHT22;7445;50.774;4.944;2023-04-07T08:01:25;10.00;99.90
14709;DHT22;7445;50.774;4.944;2023-04-07T08:03:51;10.10;99.90
14709;DHT22;7445;50.774;4.944;2023-04-07T08:06:18;10.00;99.90
14709;DHT22;7445;50.774;4.944;2023-04-07T08:08:44;10.00;99.90
14709;DHT22;7445;50.774;4.944;2023-04-07T08:11:10;10.00;99.90
14709;DHT22;7445;50.774;4.944;2023-04-07T08:13:36;10.00;99.90
14709;DHT22;7445;50.774;4.944;2023-04-07T08:16:02;10.00;99.90
14709;DHT22;7445;50.774;4.944;2023-04-07T08:18:28;10.10;99.90
14709;DHT22;7445;50.774;4.944;2023-04-07T08:20:53;10.20;99.90
14709;DHT22;7445;50.774;4.944;2023-04-07T08:23:19;10.30;99.90
14709;DHT22;7445;50.774;4.944;2023-04-07T08:25:44;10.50;99.90
14709;DHT22;7445;50.774;4.944;2023-04-07T08:28:10;10.70;99.90
14709;DHT22;7445;50.774;4.944;2023-04-07T08:30:36;10.80;99.90
14709;DHT22;7445;50.774;4.944;2023-04-07T08:33:04;10.90;99.90
14709;DHT22;7445;50.774;4.944;2023-04-07T08:35:30;11.00;99.90
14709;DHT22;7445;50.774;4.944;2023-04-07T08:37:55;11.20;99.90
14709;DHT22;7445;50.774;4.944;2023-04-07T08:40:21;11.20;99.90
14709;DHT22;7445;50.774;4.944;2023-04-07T08:42:48;11.10;99.90
14709;DHT22;7445;50.774;4.944;2023-04-07T08:45:16;10.90;99.90
14709;DHT22;7445;50.774;4.944;2023-04-07T08:47:43;11.00;99.90
14709;DHT22;7445;50.774;4.944;2023-04-07T08:50:11;11.10;99.90
14709;DHT22;7445;50.774;4.944;2023-04-07T08:52:52;11.00;99.90
14709;DHT22;7445;50.774;4.944;2023-04-07T08:55:18;10.90;99.90
14709;DHT22;7445;50.774;4.944;2023-04-07T08:57:45;10.70;99.90
14709;DHT22;7445;50.774;4.944;2023-04-07T09:00:11;10.80;99.90
14709;DHT22;7445;50.774;4.944;2023-04-07T09:02:39;11.00;99.90
14709;DHT22;7445;50.774;4.944;2023-04-07T09:05:07;11.10;99.90
14709;DHT22;7445;50.774;4.944;2023-04-07T09:07:34;11.20;99.90
14709;DHT22;7445;50.774;4.944;2023-04-07T09:10:00;11.30;99.90
14709;DHT22;7445;50.774;4.944;2023-04-07T09:12:28;11.50;99.90
14709;DHT22;7445;50.774;4.944;2023-04-07T09:14:54;11.50;99.90
14709;DHT22;7445;50.774;4.944;2023-04-07T09:17:20;11.50;99.90
14709;DHT22;7445;50.774;4.944;2023-04-07T09:19:46;11.20;99.90
14709;DHT22;7445;50.774;4.944;2023-04-07T09:22:12;11.10;99.90
14709;DHT22;7445;50.774;4.944;2023-04-07T09:24:40;11.10;99.90
14709;DHT22;7445;50.774;4.944;2023-04-07T09:27:17;11.10;99.90
14709;DHT22;7445;50.774;4.944;2023-04-07T09:29:45;11.20;99.90
14709;DHT22;7445;50.774;4.944;2023-04-07T09:32:11;11.20;99.90
14709;DHT22;7445;50.774;4.944;2023-04-07T09:34:40;11.40;99.90
14709;DHT22;7445;50.774;4.944;2023-04-07T09:37:06;11.60;99.90
14709;DHT22;7445;50.774;4.944;2023-04-07T09:39:50;11.50;99.90
14709;DHT22;7445;50.774;4.944;2023-04-07T09:42:16;11.40;99.90
14709;DHT22;7445;50.774;4.944;2023-04-07T09:44:43;11.40;99.90
14709;DHT22;7445;50.774;4.944;2023-04-07T09:47:09;11.30;99.90
14709;DHT22;7445;50.774;4.944;2023-04-07T09:49:48;11.10;99.90
14709;DHT22;7445;50.774;4.944;2023-04-07T09:52:15;10.90;99.90
14709;DHT22;7445;50.774;4.944;2023-04-07T09:54:42;10.80;99.90
14709;DHT22;7445;50.774;4.944;2023-04-07T09:57:09;10.60;99.90
14709;DHT22;7445;50.774;4.944;2023-04-07T09:59:37;10.50;99.90
14709;DHT22;7445;50.774;4.944;2023-04-07T10:02:04;10.50;99.90
14709;DHT22;7445;50.774;4.944;2023-04-07T10:04:30;10.50;99.90
14709;DHT22;7445;50.774;4.944;2023-04-07T10:06:57;10.50;99.90
14709;DHT22;7445;50.774;4.944;2023-04-07T10:09:25;10.50;99.90
14709;DHT22;7445;50.774;4.944;2023-04-07T10:11:53;10.50;99.90
14709;DHT22;7445;50.774;4.944;2023-04-07T10:14:20;10.60;99.90
14709;DHT22;7445;50.774;4.944;2023-04-07T10:16:47;10.60;99.90
14709;DHT22;7445;50.774;4.944;2023-04-07T10:19:13;10.80;99.90
14709;DHT22;7445;50.774;4.944;2023-04-07T10:21:41;11.00;99.90
14709;DHT22;7445;50.774;4.944;2023-04-07T10:24:32;11.10;99.90
14709;DHT22;7445;50.774;4.944;2023-04-07T10:27:06;11.50;99.90
14709;DHT22;7445;50.774;4.944;2023-04-07T10:29:39;11.70;99.90
14709;DHT22;7445;50.774;4.944;2023-04-07T10:32:05;12.00;99.90
14709;DHT22;7445;50.774;4.944;2023-04-07T10:37:16;12.50;99.90
14709;DHT22;7445;50.774;4.944;2023-04-07T10:39:45;12.70;99.90
14709;DHT22;7445;50.774;4.944;2023-04-07T10:45:06;13.10;99.90
14709;DHT22;7445;50.774;4.944;2023-04-07T10:47:33;13.20;99.90
14709;DHT22;7445;50.774;4.944;2023-04-07T10:50:15;13.20;99.90
14709;DHT22;7445;50.774;4.944;2023-04-07T10:52:42;13.10;99.90
14709;DHT22;7445;50.774;4.944;2023-04-07T10:55:28;12.80;99.90
14709;DHT22;7445;50.774;4.944;2023-04-07T10:58:23;12.60;99.90
14709;DHT22;7445;50.774;4.944;2023-04-07T11:03:34;12.50;99.90
14709;DHT22;7445;50.774;4.944;2023-04-07T11:06:11;12.30;99.90
14709;DHT22;7445;50.774;4.944;2023-04-07T11:08:37;12.20;99.90
14709;DHT22;7445;50.774;4.944;2023-04-07T11:11:04;12.20;99.90
14709;DHT22;7445;50.774;4.944;2023-04-07T11:13:43;12.30;99.90
14709;DHT22;7445;50.774;4.944;2023-04-07T11:16:11;12.40;99.90
14709;DHT22;7445;50.774;4.944;2023-04-07T11:18:37;12.50;99.90
14709;DHT22;7445;50.774;4.944;2023-04-07T11:21:04;12.60;99.90
14709;DHT22;7445;50.774;4.944;2023-04-07T11:23:37;12.60;99.90
14709;DHT22;7445;50.774;4.944;2023-04-07T11:26:03;12.80;99.90
14709;DHT22;7445;50.774;4.944;2023-04-07T11:28:29;12.90;99.90
14709;DHT22;7445;50.774;4.944;2023-04-07T11:30:56;12.70;99.90
14709;DHT22;7445;50.774;4.944;2023-04-07T11:33:30;12.60;99.90
14709;DHT22;7445;50.774;4.944;2023-04-07T11:36:01;12.50;99.90
14709;DHT22;7445;50.774;4.944;2023-04-07T11:38:35;12.30;99.90
14709;DHT22;7445;50.774;4.944;2023-04-07T11:41:10;12.20;99.90
14709;DHT22;7445;50.774;4.944;2023-04-07T11:43:36;12.20;99.90
14709;DHT22;7445;50.774;4.944;2023-04-07T11:46:10;12.10;99.90
14709;DHT22;7445;50.774;4.944;2023-04-07T11:48:37;12.00;99.90
14709;DHT22;7445;50.774;4.944;2023-04-07T11:51:03;12.00;99.90
14709;DHT22;7445;50.774;4.944;2023-04-07T11:53:34;12.00;99.90
14709;DHT22;7445;50.774;4.944;2023-04-07T11:56:10;11.90;99.90
14709;DHT22;7445;50.774;4.944;2023-04-07T11:58:49;11.90;99.90
14709;DHT22;7445;50.774;4.944;2023-04-07T12:01:15;12.00;99.90
14709;DHT22;7445;50.774;4.944;2023-04-07T12:04:02;12.00;99.90
14709;DHT22;7445;50.774;4.944;2023-04-07T12:06:29;12.00;99.90
14709;DHT22;7445;50.774;4.944;2023-04-07T12:08:57;12.20;99.90
14709;DHT22;7445;50.774;4.944;2023-04-07T12:11:23;12.20;99.90
14709;DHT22;7445;50.774;4.944;2023-04-07T12:13:49;12.30;99.90
14709;DHT22;7445;50.774;4.944;2023-04-07T12:16:17;12.30;99.90
14709;DHT22;7445;50.774;4.944;2023-04-07T12:18:43;12.20;99.90
14709;DHT22;7445;50.774;4.944;2023-04-07T12:21:09;12.30;99.90
14709;DHT22;7445;50.774;4.944;2023-04-07T12:23:35;12.30;99.90
14709;DHT22;7445;50.774;4.944;2023-04-07T12:26:00;12.40;99.90
14709;DHT22;7445;50.774;4.944;2023-04-07T12:28:26;12.70;99.90
14709;DHT22;7445;50.774;4.944;2023-04-07T12:30:52;12.70;99.90
14709;DHT22;7445;50.774;4.944;2023-04-07T12:33:18;12.80;99.90
14709;DHT22;7445;50.774;4.944;2023-04-07T12:35:44;12.90;99.90
14709;DHT22;7445;50.774;4.944;2023-04-07T12:38:09;12.90;99.90
14709;DHT22;7445;50.774;4.944;2023-04-07T12:40:35;12.90;99.90
14709;DHT22;7445;50.774;4.944;2023-04-07T12:43:02;12.70;99.90
14709;DHT22;7445;50.774;4.944;2023-04-07T12:45:28;12.50;99.90
14709;DHT22;7445;50.774;4.944;2023-04-07T12:47:55;12.40;99.90
14709;DHT22;7445;50.774;4.944;2023-04-07T12:50:21;12.10;99.90
14709;DHT22;7445;50.774;4.944;2023-04-07T12:52:47;11.90;99.90
14709;DHT22;7445;50.774;4.944;2023-04-07T12:55:13;11.90;99.90
14709;DHT22;7445;50.774;4.944;2023-04-07T12:57:39;11.90;99.90
14709;DHT22;7445;50.774;4.944;2023-04-07T13:00:05;11.80;99.90
14709;DHT22;7445;50.774;4.944;2023-04-07T13:02:30;11.80;99.90
14709;DHT22;7445;50.774;4.944;2023-04-07T13:04:57;11.90;99.90
14709;DHT22;7445;50.774;4.944;2023-04-07T13:07:22;11.90;99.90
14709;DHT22;7445;50.774;4.944;2023-04-07T13:09:48;11.70;99.90
14709;DHT22;7445;50.774;4.944;2023-04-07T13:12:13;11.70;99.90
14709;DHT22;7445;50.774;4.944;2023-04-07T13:14:40;11.60;99.90
14709;DHT22;7445;50.774;4.944;2023-04-07T13:17:07;11.70;99.90
14709;DHT22;7445;50.774;4.944;2023-04-07T13:19:33;11.60;99.90
14709;DHT22;7445;50.774;4.944;2023-04-07T13:21:59;11.60;99.90
14709;DHT22;7445;50.774;4.944;2023-04-07T13:24:25;11.50;99.90
14709;DHT22;7445;50.774;4.944;2023-04-07T13:26:52;11.60;99.90
14709;DHT22;7445;50.774;4.944;2023-04-07T13:29:18;11.70;99.90
14709;DHT22;7445;50.774;4.944;2023-04-07T13:31:45;11.80;99.90
14709;DHT22;7445;50.774;4.944;2023-04-07T13:34:11;11.70;99.90
14709;DHT22;7445;50.774;4.944;2023-04-07T13:36:37;11.80;99.90
14709;DHT22;7445;50.774;4.944;2023-04-07T13:39:03;12.00;99.90
14709;DHT22;7445;50.774;4.944;2023-04-07T13:41:29;12.10;99.90
14709;DHT22;7445;50.774;4.944;2023-04-07T13:43:55;12.10;99.90
14709;DHT22;7445;50.774;4.944;2023-04-07T13:46:21;12.10;99.90
14709;DHT22;7445;50.774;4.944;2023-04-07T13:48:46;12.00;99.90
14709;DHT22;7445;50.774;4.944;2023-04-07T13:51:12;12.10;99.90
14709;DHT22;7445;50.774;4.944;2023-04-07T13:53:38;12.20;99.90
14709;DHT22;7445;50.774;4.944;2023-04-07T13:56:04;12.30;99.90
14709;DHT22;7445;50.774;4.944;2023-04-07T13:58:33;12.30;99.90
14709;DHT22;7445;50.774;4.944;2023-04-07T14:00:59;12.50;99.90
14709;DHT22;7445;50.774;4.944;2023-04-07T14:03:24;12.80;99.90
14709;DHT22;7445;50.774;4.944;2023-04-07T14:05:50;12.80;99.90
14709;DHT22;7445;50.774;4.944;2023-04-07T14:08:15;12.90;99.90
14709;DHT22;7445;50.774;4.944;2023-04-07T14:10:43;12.90;99.90
14709;DHT22;7445;50.774;4.944;2023-04-07T14:13:09;12.90;99.90
14709;DHT22;7445;50.774;4.944;2023-04-07T14:15:35;12.90;99.90
14709;DHT22;7445;50.774;4.944;2023-04-07T14:18:01;12.90;99.90
14709;DHT22;7445;50.774;4.944;2023-04-07T14:20:26;12.90;99.90
14709;DHT22;7445;50.774;4.944;2023-04-07T14:22:52;12.80;99.90
14709;DHT22;7445;50.774;4.944;2023-04-07T14:25:18;12.90;99.90
14709;DHT22;7445;50.774;4.944;2023-04-07T14:27:43;12.90;99.90
14709;DHT22;7445;50.774;4.944;2023-04-07T14:30:09;13.00;99.90
14709;DHT22;7445;50.774;4.944;2023-04-07T14:32:35;13.00;99.90
14709;DHT22;7445;50.774;4.944;2023-04-07T14:35:01;12.90;99.90
14709;DHT22;7445;50.774;4.944;2023-04-07T14:37:29;12.70;99.90
14709;DHT22;7445;50.774;4.944;2023-04-07T14:39:55;12.70;99.90
14709;DHT22;7445;50.774;4.944;2023-04-07T14:42:21;12.50;99.90
14709;DHT22;7445;50.774;4.944;2023-04-07T14:44:46;12.10;99.90
14709;DHT22;7445;50.774;4.944;2023-04-07T14:47:12;11.90;99.90
14709;DHT22;7445;50.774;4.944;2023-04-07T14:49:38;11.70;99.90
14709;DHT22;7445;50.774;4.944;2023-04-07T14:52:03;11.50;99.90
14709;DHT22;7445;50.774;4.944;2023-04-07T14:54:29;11.40;99.90
14709;DHT22;7445;50.774;4.944;2023-04-07T14:56:55;11.40;99.90
14709;DHT22;7445;50.774;4.944;2023-04-07T14:59:20;11.40;99.90
14709;DHT22;7445;50.774;4.944;2023-04-07T15:01:46;11.30;99.90
14709;DHT22;7445;50.774;4.944;2023-04-07T15:04:12;11.20;99.90
14709;DHT22;7445;50.774;4.944;2023-04-07T15:06:41;11.30;99.90
14709;DHT22;7445;50.774;4.944;2023-04-07T15:09:07;11.30;99.90
14709;DHT22;7445;50.774;4.944;2023-04-07T15:11:33;11.40;99.90
14709;DHT22;7445;50.774;4.944;2023-04-07T15:13:59;11.30;99.90
14709;DHT22;7445;50.774;4.944;2023-04-07T15:16:25;11.50;99.90
14709;DHT22;7445;50.774;4.944;2023-04-07T15:18:51;11.50;99.90
14709;DHT22;7445;50.774;4.944;2023-04-07T15:21:17;11.70;99.90
14709;DHT22;7445;50.774;4.944;2023-04-07T15:23:45;11.80;99.90
14709;DHT22;7445;50.774;4.944;2023-04-07T15:26:11;11.80;99.90
14709;DHT22;7445;50.774;4.944;2023-04-07T15:28:37;11.80;99.90
14709;DHT22;7445;50.774;4.944;2023-04-07T15:31:03;11.70;99.90
14709;DHT22;7445;50.774;4.944;2023-04-07T15:33:34;11.70;99.90
14709;DHT22;7445;50.774;4.944;2023-04-07T15:36:00;11.70;99.90
14709;DHT22;7445;50.774;4.944;2023-04-07T15:38:27;11.80;99.90
14709;DHT22;7445;50.774;4.944;2023-04-07T15:40:53;11.80;99.90
14709;DHT22;7445;50.774;4.944;2023-04-07T15:43:19;11.90;99.90
14709;DHT22;7445;50.774;4.944;2023-04-07T15:45:45;12.00;99.90
14709;DHT22;7445;50.774;4.944;2023-04-07T15:48:12;11.80;99.90
14709;DHT22;7445;50.774;4.944;2023-04-07T15:50:38;11.70;99.90
14709;DHT22;7445;50.774;4.944;2023-04-07T15:53:04;11.70;99.90
14709;DHT22;7445;50.774;4.944;2023-04-07T15:55:34;11.70;99.90
14709;DHT22;7445;50.774;4.944;2023-04-07T15:58:00;11.80;99.90
14709;DHT22;7445;50.774;4.944;2023-04-07T16:00:27;12.00;99.90
14709;DHT22;7445;50.774;4.944;2023-04-07T16:02:53;12.10;99.90
14709;DHT22;7445;50.774;4.944;2023-04-07T16:05:19;12.20;99.90
14709;DHT22;7445;50.774;4.944;2023-04-07T16:07:45;12.10;99.90
14709;DHT22;7445;50.774;4.944;2023-04-07T16:10:10;12.20;99.90
14709;DHT22;7445;50.774;4.944;2023-04-07T16:12:37;12.30;99.90
14709;DHT22;7445;50.774;4.944;2023-04-07T16:15:04;12.30;99.90
14709;DHT22;7445;50.774;4.944;2023-04-07T16:17:29;12.00;99.90
14709;DHT22;7445;50.774;4.944;2023-04-07T16:19:55;11.90;99.90
14709;DHT22;7445;50.774;4.944;2023-04-07T16:22:21;11.90;99.90
14709;DHT22;7445;50.774;4.944;2023-04-07T16:24:46;11.70;99.90
14709;DHT22;7445;50.774;4.944;2023-04-07T16:27:12;11.50;99.90
14709;DHT22;7445;50.774;4.944;2023-04-07T16:29:37;11.30;99.90
14709;DHT22;7445;50.774;4.944;2023-04-07T16:32:03;11.40;99.90
14709;DHT22;7445;50.774;4.944;2023-04-07T16:34:29;11.40;99.90
14709;DHT22;7445;50.774;4.944;2023-04-07T16:36:55;11.40;99.90
14709;DHT22;7445;50.774;4.944;2023-04-07T16:39:22;11.40;99.90
14709;DHT22;7445;50.774;4.944;2023-04-07T16:41:47;11.40;99.90
14709;DHT22;7445;50.774;4.944;2023-04-07T16:44:13;11.30;99.90
14709;DHT22;7445;50.774;4.944;2023-04-07T16:46:39;11.20;99.90
14709;DHT22;7445;50.774;4.944;2023-04-07T16:49:05;11.30;99.90
14709;DHT22;7445;50.774;4.944;2023-04-07T16:51:30;11.20;99.90
14709;DHT22;7445;50.774;4.944;2023-04-07T16:53:56;11.10;99.90
14709;DHT22;7445;50.774;4.944;2023-04-07T16:56:23;11.10;99.90
14709;DHT22;7445;50.774;4.944;2023-04-07T16:58:50;11.10;99.90
14709;DHT22;7445;50.774;4.944;2023-04-07T17:01:16;11.10;99.90
14709;DHT22;7445;50.774;4.944;2023-04-07T17:03:42;11.10;99.90
14709;DHT22;7445;50.774;4.944;2023-04-07T17:06:07;10.90;99.90
14709;DHT22;7445;50.774;4.944;2023-04-07T17:08:34;10.80;99.90
14709;DHT22;7445;50.774;4.944;2023-04-07T17:11:04;10.70;99.90
14709;DHT22;7445;50.774;4.944;2023-04-07T17:13:30;10.60;99.90
14709;DHT22;7445;50.774;4.944;2023-04-07T17:15:55;10.60;99.90
14709;DHT22;7445;50.774;4.944;2023-04-07T17:18:21;10.60;99.90
14709;DHT22;7445;50.774;4.944;2023-04-07T17:20:47;10.50;99.90
14709;DHT22;7445;50.774;4.944;2023-04-07T17:23:12;10.50;99.90
14709;DHT22;7445;50.774;4.944;2023-04-07T17:25:38;10.60;99.90
14709;DHT22;7445;50.774;4.944;2023-04-07T17:28:04;10.50;99.90
14709;DHT22;7445;50.774;4.944;2023-04-07T17:30:30;10.50;99.90
14709;DHT22;7445;50.774;4.944;2023-04-07T17:32:55;10.50;99.90
14709;DHT22;7445;50.774;4.944;2023-04-07T17:35:21;10.50;99.90
14709;DHT22;7445;50.774;4.944;2023-04-07T17:37:47;10.50;99.90
14709;DHT22;7445;50.774;4.944;2023-04-07T17:40:13;10.40;99.90
14709;DHT22;7445;50.774;4.944;2023-04-07T17:42:38;10.30;99.90
14709;DHT22;7445;50.774;4.944;2023-04-07T17:45:05;10.30;99.90
14709;DHT22;7445;50.774;4.944;2023-04-07T17:47:32;10.30;99.90
14709;DHT22;7445;50.774;4.944;2023-04-07T17:49:58;10.10;99.90
14709;DHT22;7445;50.774;4.944;2023-04-07T17:52:26;10.00;99.90
14709;DHT22;7445;50.774;4.944;2023-04-07T17:54:57;10.00;99.90
14709;DHT22;7445;50.774;4.944;2023-04-07T17:57:24;10.00;99.90
14709;DHT22;7445;50.774;4.944;2023-04-07T17:59:50;10.00;99.90
14709;DHT22;7445;50.774;4.944;2023-04-07T18:02:16;9.90;99.90
14709;DHT22;7445;50.774;4.944;2023-04-07T18:04:42;9.90;99.90
14709;DHT22;7445;50.774;4.944;2023-04-07T18:07:07;9.90;99.90
14709;DHT22;7445;50.774;4.944;2023-04-07T18:09:34;9.80;99.90
14709;DHT22;7445;50.774;4.944;2023-04-07T18:12:01;9.80;99.90
14709;DHT22;7445;50.774;4.944;2023-04-07T18:14:27;9.70;99.90
14709;DHT22;7445;50.774;4.944;2023-04-07T18:16:53;9.70;99.90
14709;DHT22;7445;50.774;4.944;2023-04-07T18:19:20;9.70;99.90
14709;DHT22;7445;50.774;4.944;2023-04-07T18:21:48;9.70;99.90
14709;DHT22;7445;50.774;4.944;2023-04-07T18:24:17;9.60;99.90
14709;DHT22;7445;50.774;4.944;2023-04-07T18:26:43;9.60;99.90
14709;DHT22;7445;50.774;4.944;2023-04-07T18:29:09;9.60;99.90
14709;DHT22;7445;50.774;4.944;2023-04-07T18:31:37;9.60;99.90
14709;DHT22;7445;50.774;4.944;2023-04-07T18:34:03;9.60;99.90
14709;DHT22;7445;50.774;4.944;2023-04-07T18:36:28;9.50;99.90
14709;DHT22;7445;50.774;4.944;2023-04-07T18:38:54;9.60;99.90
14709;DHT22;7445;50.774;4.944;2023-04-07T18:41:19;9.50;99.90
14709;DHT22;7445;50.774;4.944;2023-04-07T18:43:45;9.50;99.90
14709;DHT22;7445;50.774;4.944;2023-04-07T18:46:13;9.50;99.90
14709;DHT22;7445;50.774;4.944;2023-04-07T18:48:39;9.50;99.90
14709;DHT22;7445;50.774;4.944;2023-04-07T18:51:08;9.40;99.90
14709;DHT22;7445;50.774;4.944;2023-04-07T18:53:34;9.40;99.90
14709;DHT22;7445;50.774;4.944;2023-04-07T18:56:00;9.40;99.90
14709;DHT22;7445;50.774;4.944;2023-04-07T18:58:25;9.40;99.90
14709;DHT22;7445;50.774;4.944;2023-04-07T19:00:51;9.40;99.90
14709;DHT22;7445;50.774;4.944;2023-04-07T19:03:20;9.40;99.90
14709;DHT22;7445;50.774;4.944;2023-04-07T19:05:46;9.40;99.90
14709;DHT22;7445;50.774;4.944;2023-04-07T19:08:12;9.40;99.90
14709;DHT22;7445;50.774;4.944;2023-04-07T19:10:37;9.40;99.90
14709;DHT22;7445;50.774;4.944;2023-04-07T19:13:04;9.40;99.90
14709;DHT22;7445;50.774;4.944;2023-04-07T19:15:30;9.40;99.90
14709;DHT22;7445;50.774;4.944;2023-04-07T19:18:01;9.40;99.90
14709;DHT22;7445;50.774;4.944;2023-04-07T19:20:27;9.40;99.90
14709;DHT22;7445;50.774;4.944;2023-04-07T19:22:54;9.40;99.90
14709;DHT22;7445;50.774;4.944;2023-04-07T19:25:22;9.40;99.90
14709;DHT22;7445;50.774;4.944;2023-04-07T19:27:47;9.40;99.90
14709;DHT22;7445;50.774;4.944;2023-04-07T19:30:13;9.40;99.90
14709;DHT22;7445;50.774;4.944;2023-04-07T19:32:40;9.40;99.90
14709;DHT22;7445;50.774;4.944;2023-04-07T19:35:07;9.40;99.90
14709;DHT22;7445;50.774;4.944;2023-04-07T19:37:33;9.40;99.90
14709;DHT22;7445;50.774;4.944;2023-04-07T19:39:58;9.40;99.90
14709;DHT22;7445;50.774;4.944;2023-04-07T19:42:24;9.30;99.90
14709;DHT22;7445;50.774;4.944;2023-04-07T19:44:50;9.40;99.90
14709;DHT22;7445;50.774;4.944;2023-04-07T19:47:18;9.30;99.90
14709;DHT22;7445;50.774;4.944;2023-04-07T19:49:44;9.30;99.90
14709;DHT22;7445;50.774;4.944;2023-04-07T19:52:10;9.30;99.90
14709;DHT22;7445;50.774;4.944;2023-04-07T19:54:36;9.30;99.90
14709;DHT22;7445;50.774;4.944;2023-04-07T19:57:01;9.30;99.90
14709;DHT22;7445;50.774;4.944;2023-04-07T19:59:27;9.40;99.90
14709;DHT22;7445;50.774;4.944;2023-04-07T20:01:53;9.40;99.90
14709;DHT22;7445;50.774;4.944;2023-04-07T20:04:18;9.40;99.90
14709;DHT22;7445;50.774;4.944;2023-04-07T20:06:44;9.40;99.90
14709;DHT22;7445;50.774;4.944;2023-04-07T20:09:10;9.30;99.90
14709;DHT22;7445;50.774;4.944;2023-04-07T20:11:35;9.40;99.90
14709;DHT22;7445;50.774;4.944;2023-04-07T20:14:01;9.40;99.90
14709;DHT22;7445;50.774;4.944;2023-04-07T20:16:30;9.40;99.90
14709;DHT22;7445;50.774;4.944;2023-04-07T20:18:56;9.40;99.90
14709;DHT22;7445;50.774;4.944;2023-04-07T20:21:22;9.40;99.90
14709;DHT22;7445;50.774;4.944;2023-04-07T20:23:47;9.40;99.90
14709;DHT22;7445;50.774;4.944;2023-04-07T20:26:13;9.40;99.90
14709;DHT22;7445;50.774;4.944;2023-04-07T20:28:40;9.30;99.90
14709;DHT22;7445;50.774;4.944;2023-04-07T20:31:05;9.30;99.90
14709;DHT22;7445;50.774;4.944;2023-04-07T20:33:31;9.30;99.90
14709;DHT22;7445;50.774;4.944;2023-04-07T20:35:56;9.30;99.90
14709;DHT22;7445;50.774;4.944;2023-04-07T20:38:22;9.30;99.90
14709;DHT22;7445;50.774;4.944;2023-04-07T20:40:49;9.30;99.90
14709;DHT22;7445;50.774;4.944;2023-04-07T20:43:15;9.30;99.90
14709;DHT22;7445;50.774;4.944;2023-04-07T20:45:43;9.30;99.90
14709;DHT22;7445;50.774;4.944;2023-04-07T20:48:09;9.30;99.90
14709;DHT22;7445;50.774;4.944;2023-04-07T20:50:35;9.40;99.90
14709;DHT22;7445;50.774;4.944;2023-04-07T20:53:02;9.30;99.90
14709;DHT22;7445;50.774;4.944;2023-04-07T20:55:28;9.30;99.90
14709;DHT22;7445;50.774;4.944;2023-04-07T20:57:53;9.30;99.90
14709;DHT22;7445;50.774;4.944;2023-04-07T21:00:19;9.30;99.90
14709;DHT22;7445;50.774;4.944;2023-04-07T21:02:45;9.30;99.90
14709;DHT22;7445;50.774;4.944;2023-04-07T21:05:12;9.30;99.90
14709;DHT22;7445;50.774;4.944;2023-04-07T21:07:38;9.30;99.90
14709;DHT22;7445;50.774;4.944;2023-04-07T21:10:05;9.30;99.90
14709;DHT22;7445;50.774;4.944;2023-04-07T21:12:31;9.30;99.90
14709;DHT22;7445;50.774;4.944;2023-04-07T21:14:57;9.20;99.90
14709;DHT22;7445;50.774;4.944;2023-04-07T21:17:22;9.20;99.90
14709;DHT22;7445;50.774;4.944;2023-04-07T21:19:48;9.20;99.90
14709;DHT22;7445;50.774;4.944;2023-04-07T21:22:14;9.20;99.90
